• Join FlightAware (Why Join?)
  • Login
  • US Flag 
10:41AM EST


 

Airport Tracker/Info


-or-


 

Live Flight TrackerFlight Track Log ✈ N795HG ✈ 12-Jul-2013 ✈ KPVD - EGAE / LDY

Flight Track Log - Related Links

Times and Time Zones

All times are in EDT time to prevent confusion due to time zone crossing. See the N795HG flight status page for this flight to view local times or setup timezone preferences in your user account.

Time Position Orientation Groundspeed Altitude Reporting Facility
EDT Latitude Longitude Course Direction KTS MPH feet Rate Location/Type
05:01AM 42.3992 -70.9637 16° North  Level FlightAware Approximate
05:04AM 41.7414 -71.4133 16° North 484 557 1,100  Level Boston Center
05:05AM 41.7847 -71.3822 28° Northeast 290 334 3,400 2,220 Climbing Boston Center
05:06AM 41.8383 -71.3200 41° Northeast 230 265 5,600 2,040 Climbing Boston Center
05:07AM 41.8856 -71.2522 47° Northeast 251 289 7,500 2,160 Climbing Boston Center
05:08AM 41.9472 -71.1672 46° Northeast 272 313 10,000 2,520 Climbing Boston Center
05:09AM 42.0006 -71.0936 46° Northeast 289 333 12,600 2,640 Climbing Boston Center
05:10AM 42.0642 -71.0083 45° Northeast 289 333 15,300 2,340 Climbing Boston Center
05:11AM 42.1172 -70.9314 47° Northeast 306 352 17,300 1,860 Climbing Boston Center
05:12AM 42.1911 -70.8400 42° Northeast 311 358 19,100 1,620 Climbing Boston Center
05:13AM 42.2544 -70.7458 48° Northeast 317 365 20,600 1,260 Climbing Boston Center
05:14AM 42.3236 -70.6456 47° Northeast 338 389 21,700 1,020 Climbing Boston Center
05:15AM 42.4011 -70.5339 47° Northeast 367 422 22,700 960 Climbing Boston Center
05:16AM 42.4844 -70.4214 45° Northeast 397 457 23,700 1,080 Climbing Boston Center
05:17AM 42.5678 -70.3031 46° Northeast 411 473 24,900 1,200 Climbing Boston Center
05:18AM 42.6531 -70.1817 46° Northeast 426 490 26,200 1,140 Climbing Boston Center
05:19AM 42.7381 -70.0597 46° Northeast 438 504 27,200 1,020 Climbing Boston Center
05:20AM 42.8292 -69.9289 46° Northeast 450 518 28,300 960 Climbing Boston Center
05:21AM 42.9139 -69.8064 47° Northeast 474 545 29,200 960 Climbing Boston Center
05:22AM 43.0067 -69.6744 46° Northeast 474 545 30,300 1,080 Climbing Boston Center
05:23AM 43.1011 -69.5367 47° Northeast 486 559 31,400 1,080 Climbing Boston Center
05:24AM 43.1956 -69.3953 47° Northeast 486 559 32,500 1,020 Climbing Boston Center
05:25AM 43.2897 -69.2567 47° Northeast 486 559 33,500 900 Climbing Boston Center
05:26AM 43.3878 -69.1114 47° Northeast 497 572 34,400 900 Climbing Boston Center
05:27AM 43.4875 -68.9656 47° Northeast 509 586 35,400 1,020 Climbing Boston Center
05:28AM 43.5872 -68.8194 47° Northeast 515 593 36,500 1,200 Climbing Boston Center
05:29AM 43.6867 -68.6697 47° Northeast 515 593 37,800 1,140 Climbing Boston Center
05:30AM 43.7819 -68.5258 47° Northeast 505 581 38,800 960 Climbing Boston Center
05:31AM 43.8808 -68.3753 48° Northeast 510 587 39,800 900 Climbing Boston Center
05:32AM 43.9797 -68.2242 48° Northeast 515 593 40,700 600 Climbing Boston Center
05:33AM 44.0803 -68.0725 47° Northeast 515 593 41,000 120 Climbing Boston Center
05:34AM 44.1828 -67.9200 47° Northeast 515 593 41,000  Level Boston Center
05:35AM 44.2828 -67.7586 49° Northeast 526 605 41,000  Level Boston Center
05:36AM 44.3867 -67.5964 48° Northeast 541 623 41,000  Level Boston Center
05:36AM 44.4500 -67.4833 52° Northeast 560 644 41,000  Level Moncton Center
05:37AM 44.5500 -67.3333 47° Northeast 570 656 41,000  Level Moncton Center
05:38AM 44.6017 -67.2667 43° Northeast 559 643 41,000  Level Boston Center
05:38AM 44.6333 -67.1667 66° East 570 656 41,000  Level Moncton Center
05:39AM 44.7667 -66.9833 44° Northeast 570 656 41,000  Level Moncton Center
05:40AM 44.8500 -66.8333 52° Northeast 570 656 41,000  Level Moncton Center
05:41AM 44.9667 -66.6667 45° Northeast 570 656 41,000  Level Moncton Center
05:42AM 45.0667 -66.5000 50° Northeast 570 656 41,000  Level Moncton Center
05:43AM 45.1667 -66.3167 52° Northeast 570 656 41,000  Level Moncton Center
05:44AM 45.2833 -66.1500 45° Northeast 570 656 41,000  Level Moncton Center
05:45AM 45.3833 -66.0000 46° Northeast 570 656 41,000  Level Moncton Center
05:46AM 45.4833 -65.8000 54° Northeast 570 656 41,000  Level Moncton Center
05:47AM 45.5833 -65.6333 49° Northeast 570 656 41,000  Level Moncton Center
05:48AM 45.6833 -65.4500 52° Northeast 570 656 41,000  Level Moncton Center
05:49AM 45.7833 -65.2833 49° Northeast 570 656 41,000  Level Moncton Center
05:50AM 45.8833 -65.1167 49° Northeast 570 656 41,000  Level Moncton Center
05:51AM 45.9833 -64.9500 49° Northeast 570 656 41,000  Level Moncton Center
05:52AM 46.1000 -64.7667 47° Northeast 580 667 41,000  Level Moncton Center
05:53AM 46.2000 -64.5833 52° Northeast 570 656 41,000  Level Moncton Center
05:54AM 46.3000 -64.4167 49° Northeast 570 656 41,000  Level Moncton Center
05:55AM 46.4000 -64.2500 49° Northeast 570 656 41,000  Level Moncton Center
05:56AM 46.5000 -64.0500 54° Northeast 570 656 41,000  Level Moncton Center
05:57AM 46.6000 -63.8833 49° Northeast 570 656 41,000  Level Moncton Center
05:58AM 46.7167 -63.6833 50° Northeast 570 656 41,000  Level Moncton Center
05:59AM 46.8000 -63.5167 54° Northeast 570 656 41,000  Level Moncton Center
06:00AM 46.9000 -63.3167 54° Northeast 570 656 41,000  Level Moncton Center
06:01AM 47.0000 -63.1500 49° Northeast 570 656 41,000  Level Moncton Center
06:02AM 47.0833 -62.9667 56° Northeast 570 656 41,000  Level Moncton Center
06:03AM 47.2000 -62.8000 44° Northeast 570 656 41,000  Level Moncton Center
06:04AM 47.3000 -62.6167 51° Northeast 570 656 41,000  Level Moncton Center
06:05AM 47.4000 -62.4167 53° Northeast 570 656 41,000  Level Moncton Center
06:06AM 47.5000 -62.2333 51° Northeast 570 656 41,000  Level Moncton Center
06:07AM 47.6000 -62.0333 53° Northeast 580 667 41,000  Level Moncton Center
06:08AM 47.6833 -61.8667 53° Northeast 570 656 41,000  Level Moncton Center
06:09AM 47.8000 -61.6500 51° Northeast 580 667 41,000  Level Moncton Center
06:10AM 47.8833 -61.4833 53° Northeast 570 656 41,000  Level Moncton Center
06:11AM 47.9833 -61.3000 51° Northeast 580 667 41,000  Level Moncton Center
06:12AM 48.0833 -61.0833 55° Northeast 570 656 41,000 60 Level Moncton Center
06:13AM 48.1833 -60.9000 51° Northeast 570 656 41,200 300 Climbing Moncton Center
06:14AM 48.2833 -60.7167 51° Northeast 570 656 41,700 420 Climbing Moncton Center
06:15AM 48.3667 -60.5333 56° Northeast 560 644 42,100 420 Climbing Moncton Center
06:16AM 48.4667 -60.3333 53° Northeast 560 644 42,600 480 Climbing Moncton Center
06:17AM 48.5500 -60.1500 55° Northeast 550 633 43,100 480 Climbing Moncton Center
06:18AM 48.6333 -59.9667 55° Northeast 550 633 43,600 480 Climbing Moncton Center
06:19AM 48.7333 -59.7833 50° Northeast 540 621 44,100 420 Climbing Moncton Center
06:20AM 48.8000 -59.6167 59° Northeast 540 621 44,500 420 Climbing Moncton Center
06:21AM 48.9000 -59.4333 50° Northeast 530 610 45,000 240 Climbing Moncton Center
06:22AM 48.9833 -59.2333 58° Northeast 530 610 45,000  Level Moncton Center
06:23AM 49.0833 -59.0500 50° Northeast 540 621 45,000  Level Moncton Center
06:24AM 49.1667 -58.8667 55° Northeast 540 621 45,000  Level Moncton Center
06:25AM 49.2500 -58.6667 57° Northeast 540 621 45,000  Level Moncton Center
06:26AM 49.3333 -58.4833 55° Northeast 540 621 45,000  Level Moncton Center
06:27AM 49.4167 -58.3000 55° Northeast 540 621 45,000  Level Moncton Center
06:28AM 49.4833 -58.0833 65° Northeast 540 621 45,000  Level Moncton Center
06:29AM 49.5667 -57.8667 59° Northeast 540 621 45,000  Level Moncton Center
06:30AM 49.6333 -57.6667 63° Northeast 540 621 45,000  Level Moncton Center
06:31AM 49.7000 -57.4500 64° Northeast 540 621 45,000  Level Moncton Center
06:32AM 49.7833 -57.2667 55° Northeast 540 621 45,000  Level Moncton Center
06:33AM 49.8500 -57.0500 64° Northeast 540 621 45,000  Level Moncton Center
06:34AM 49.9167 -56.8500 63° Northeast 540 621 45,000  Level Moncton Center
06:35AM 49.9833 -56.6333 64° Northeast 540 621 45,000  Level Moncton Center
06:36AM 50.0500 -56.4333 63° Northeast 540 621 45,000  Level Moncton Center
06:37AM 50.1333 -56.2167 59° Northeast 550 633 45,000  Level Moncton Center
06:38AM 50.2000 -56.0167 62° Northeast 540 621 45,000  Level Moncton Center
06:39AM 50.2667 -55.8000 64° Northeast 550 633 45,000  Level Moncton Center
06:40AM 50.3333 -55.6000 62° Northeast 540 621 45,000  Level Moncton Center
06:41AM 50.4000 -55.3833 64° Northeast 550 633 45,000  Level Moncton Center
06:42AM 50.4833 -55.1500 61° Northeast 550 633 45,000  Level Moncton Center
06:43AM 50.5333 -54.9500 68° East 550 633 45,000  Level Moncton Center
06:44AM 50.6167 -54.7167 61° Northeast 550 633 45,000  Level Moncton Center
06:45AM 50.6833 -54.5167 62° Northeast 550 633 45,000  Level Moncton Center
06:46AM 50.7500 -54.3000 64° Northeast 550 633 45,000  Level Moncton Center
06:47AM 50.8167 -54.1000 62° Northeast 550 633 45,000  Level Moncton Center
06:48AM 50.8833 -53.8667 66° East 540 621 45,000  Level Moncton Center
06:49AM 50.9500 -53.6333 66° East 550 633 45,000  Level Moncton Center
06:50AM 51.0167 -53.4333 62° Northeast 550 633 45,000  Level Moncton Center
06:51AM 51.0667 -53.2167 70° East 540 621 45,000  Level Moncton Center
06:52AM 51.1333 -53.0000 64° Northeast 550 633 45,000  Level Moncton Center
06:53AM 51.2000 -52.7833 64° Northeast 560 644 45,000  Level Moncton Center
06:54AM 51.2667 -52.5667 64° Northeast 540 621 45,000  Level Moncton Center
06:55AM 51.3333 -52.3667 62° Northeast 540 621 45,000  Level Moncton Center
06:56AM 51.3833 -52.1000 73° East 550 633 45,000  Level Moncton Center
06:57AM 51.4500 -51.9000 62° Northeast 540 621 45,000  Level Moncton Center
06:58AM 51.5167 -51.7000 62° Northeast 540 621 45,000  Level Moncton Center
06:59AM 51.5667 -51.4667 71° East 550 633 45,000  Level Moncton Center
07:00AM 51.6500 -51.2167 62° Northeast 540 621 45,000  Level Moncton Center
07:01AM 51.7000 -51.0500 64° Northeast 550 633 45,000  Level Moncton Center
07:03AM 51.7833 -50.6833 70° East 550 633 45,000  Level Gander Center
07:04AM 51.8500 -50.4833 62° Northeast 530 610 45,000  Level Gander Center
07:05AM 51.9167 -50.2500 65° Northeast 530 610 45,000  Level Gander Center
07:06AM 51.9833 -50.0333 63° Northeast 520 598 45,000  Level Gander Center
07:07AM 52.0000 -50.0000 59° Northeast 532 612 45,000  Level ETMS Enhanced Traffic Management System
07:14AM 52.5199 -48.5378 60° Northeast 532 612 45,000  Level FlightAware Transoceanic
07:15AM 52.5927 -48.3261 61° Northeast 532 612 45,000  Level FlightAware Transoceanic
07:16AM 52.6651 -48.1137 61° Northeast 532 612 45,000  Level FlightAware Transoceanic
07:17AM 52.7371 -47.9006 61° Northeast 532 612 45,000  Level FlightAware Transoceanic
07:18AM 52.8087 -47.6868 61° Northeast 532 612 45,000  Level FlightAware Transoceanic
07:19AM 52.8800 -47.4723 61° Northeast 532 612 45,000  Level FlightAware Transoceanic
07:20AM 52.9508 -47.2570 61° Northeast 532 612 45,000  Level FlightAware Transoceanic
07:21AM 53.0213 -47.0411 62° Northeast 532 612 45,000  Level FlightAware Transoceanic
07:22AM 53.0914 -46.8245 62° Northeast 532 612 45,000  Level FlightAware Transoceanic
07:23AM 53.1611 -46.6072 62° Northeast 532 612 45,000  Level FlightAware Transoceanic
07:24AM 53.2304 -46.3891 62° Northeast 532 612 45,000  Level FlightAware Transoceanic
07:25AM 53.2993 -46.1704 62° Northeast 532 612 45,000  Level FlightAware Transoceanic
07:26AM 53.3677 -45.9510 62° Northeast 532 612 45,000  Level FlightAware Transoceanic
07:27AM 53.4358 -45.7308 63° Northeast 532 612 45,000  Level FlightAware Transoceanic
07:28AM 53.5035 -45.5100 63° Northeast 532 612 45,000  Level FlightAware Transoceanic
07:29AM 53.5708 -45.2884 63° Northeast 532 612 45,000  Level FlightAware Transoceanic
07:30AM 53.6376 -45.0662 63° Northeast 532 612 45,000  Level FlightAware Transoceanic
07:31AM 53.7041 -44.8432 63° Northeast 532 612 45,000  Level FlightAware Transoceanic
07:32AM 53.7701 -44.6195 64° Northeast 532 612 45,000  Level FlightAware Transoceanic
07:33AM 53.8357 -44.3952 64° Northeast 532 612 45,000  Level FlightAware Transoceanic
07:34AM 53.9009 -44.1701 64° Northeast 532 612 45,000  Level FlightAware Transoceanic
07:35AM 53.9657 -43.9444 64° Northeast 532 612 45,000  Level FlightAware Transoceanic
07:36AM 54.0300 -43.7179 64° Northeast 532 612 45,000  Level FlightAware Transoceanic
07:37AM 54.0940 -43.4907 64° Northeast 532 612 45,000  Level FlightAware Transoceanic
07:38AM 54.1575 -43.2628 65° Northeast 532 612 45,000  Level FlightAware Transoceanic
07:39AM 54.2205 -43.0343 65° Northeast 532 612 45,000  Level FlightAware Transoceanic
07:40AM 54.2831 -42.8050 65° Northeast 532 612 45,000  Level FlightAware Transoceanic
07:41AM 54.3453 -42.5751 65° Northeast 532 612 45,000  Level FlightAware Transoceanic
07:42AM 54.4071 -42.3444 65° Northeast 532 612 45,000  Level FlightAware Transoceanic
07:43AM 54.4684 -42.1131 66° East 532 612 45,000  Level FlightAware Transoceanic
07:44AM 54.5293 -41.8810 66° East 532 612 45,000  Level FlightAware Transoceanic
07:45AM 54.5897 -41.6483 66° East 532 612 45,000  Level FlightAware Transoceanic
07:46AM 54.6497 -41.4149 66° East 532 612 45,000  Level FlightAware Transoceanic
07:47AM 54.7092 -41.1808 66° East 532 612 45,000  Level FlightAware Transoceanic
07:48AM 54.7683 -40.9460 67° East 532 612 45,000  Level FlightAware Transoceanic
07:49AM 54.8269 -40.7105 67° East 532 612 45,000  Level FlightAware Transoceanic
07:50AM 54.8851 -40.4743 67° East 532 612 45,000  Level FlightAware Transoceanic
07:51AM 54.9428 -40.2375 67° East 532 612 45,000  Level FlightAware Transoceanic
07:52AM 54.9960 -40.0168 67° East  Level FlightAware Approximate
07:53AM 55.0487 -39.7955 67° East  Level FlightAware Approximate
07:54AM 55.0282 -39.8029 76° East  Level FlightAware Approximate
07:55AM 55.0611 -39.5701 76° East  Level FlightAware Approximate
07:56AM 55.0936 -39.3369 76° East  Level FlightAware Approximate
07:57AM 55.1256 -39.1033 76° East  Level FlightAware Approximate
07:58AM 55.1572 -38.8693 77° East  Level FlightAware Approximate
07:59AM 55.1883 -38.6350 77° East  Level FlightAware Approximate
08:00AM 55.2189 -38.4003 77° East  Level FlightAware Approximate
08:00AM 55.0000 -40.0000 76° East 492 566 45,000  Level ETMS Enhanced Traffic Management System
08:01AM 55.2491 -38.1653 77° East  Level FlightAware Approximate
08:02AM 55.2789 -37.9299 77° East  Level FlightAware Approximate
08:03AM 55.3082 -37.6941 78° East  Level FlightAware Approximate
08:04AM 55.3371 -37.4580 78° East  Level FlightAware Approximate
08:05AM 55.3655 -37.2215 78° East  Level FlightAware Approximate
08:06AM 55.3961 -36.9616 78° East 492 566 45,000  Level FlightAware Transoceanic
08:07AM 55.4234 -36.7255 79° East 492 566 45,000  Level FlightAware Transoceanic
08:08AM 55.4503 -36.4890 79° East 492 566 45,000  Level FlightAware Transoceanic
08:09AM 55.4767 -36.2522 79° East 492 566 45,000  Level FlightAware Transoceanic
08:10AM 55.5027 -36.0151 79° East 492 566 45,000  Level FlightAware Transoceanic
08:11AM 55.5282 -35.7777 79° East 492 566 45,000  Level FlightAware Transoceanic
08:12AM 55.5532 -35.5400 80° East 492 566 45,000  Level FlightAware Transoceanic
08:13AM 55.5778 -35.3020 80° East 492 566 45,000  Level FlightAware Transoceanic
08:14AM 55.6019 -35.0636 80° East 492 566 45,000  Level FlightAware Transoceanic
08:15AM 55.6255 -34.8250 80° East 492 566 45,000  Level FlightAware Transoceanic
08:16AM 55.6487 -34.5862 80° East 492 566 45,000  Level FlightAware Transoceanic
08:17AM 55.6714 -34.3470 81° East 492 566 45,000  Level FlightAware Transoceanic
08:18AM 55.6937 -34.1075 81° East 492 566 45,000  Level FlightAware Transoceanic
08:19AM 55.7155 -33.8678 81° East 492 566 45,000  Level FlightAware Transoceanic
08:20AM 55.7368 -33.6278 81° East 492 566 45,000  Level FlightAware Transoceanic
08:21AM 55.7577 -33.3876 81° East 492 566 45,000  Level FlightAware Transoceanic
08:22AM 55.7780 -33.1471 82° East 492 566 45,000  Level FlightAware Transoceanic
08:23AM 55.7980 -32.9063 82° East 492 566 45,000  Level FlightAware Transoceanic
08:24AM 55.8174 -32.6654 82° East 492 566 45,000  Level FlightAware Transoceanic
08:25AM 55.8364 -32.4241 82° East 492 566 45,000  Level FlightAware Transoceanic
08:26AM 55.8549 -32.1827 82° East 492 566 45,000  Level FlightAware Transoceanic
08:27AM 55.8729 -31.9410 83° East 492 566 45,000  Level FlightAware Transoceanic
08:28AM 55.8905 -31.6991 83° East 492 566 45,000  Level FlightAware Transoceanic
08:29AM 55.9075 -31.4570 83° East 492 566 45,000  Level FlightAware Transoceanic
08:30AM 55.9241 -31.2146 83° East 492 566 45,000  Level FlightAware Transoceanic
08:31AM 55.9403 -30.9721 83° East 492 566 45,000  Level FlightAware Transoceanic
08:32AM 55.9559 -30.7293 84° East 492 566 45,000  Level FlightAware Transoceanic
08:33AM 55.9711 -30.4864 84° East 492 566 45,000  Level FlightAware Transoceanic
08:34AM 55.9858 -30.2433 84° East 492 566 45,000  Level FlightAware Transoceanic
08:35AM 56.0001 -29.9990 84° East  Level FlightAware Approximate
08:36AM 56.0001 -29.9979 86° East  Level FlightAware Approximate
08:36AM 56.0000 -30.0000 86° East 502 578 45,000  Level ETMS Enhanced Traffic Management System
08:37AM 56.0084 -29.7526 86° East  Level FlightAware Approximate
08:38AM 56.0162 -29.5073 87° East  Level FlightAware Approximate
08:39AM 56.0235 -29.2618 87° East  Level FlightAware Approximate
08:40AM 56.0304 -29.0162 87° East  Level FlightAware Approximate
08:41AM 56.0368 -28.7706 87° East  Level FlightAware Approximate
08:42AM 56.0647 -28.0034 88° East 502 578 45,000  Level FlightAware Transoceanic
08:43AM 56.0705 -27.7534 88° East 502 578 45,000  Level FlightAware Transoceanic
08:44AM 56.0759 -27.5033 88° East 502 578 45,000  Level FlightAware Transoceanic
08:45AM 56.0807 -27.2531 88° East 502 578 45,000  Level FlightAware Transoceanic
08:46AM 56.0850 -27.0029 88° East 502 578 45,000  Level FlightAware Transoceanic
08:47AM 56.0888 -26.7527 89° East 502 578 45,000  Level FlightAware Transoceanic
08:48AM 56.0921 -26.5024 89° East 502 578 45,000  Level FlightAware Transoceanic
08:49AM 56.0949 -26.2521 89° East 502 578 45,000  Level FlightAware Transoceanic
08:50AM 56.0971 -26.0017 89° East 502 578 45,000  Level FlightAware Transoceanic
08:51AM 56.0989 -25.7513 89° East 502 578 45,000  Level FlightAware Transoceanic
08:52AM 56.1002 -25.5009 90° East 502 578 45,000  Level FlightAware Transoceanic
08:53AM 56.1009 -25.2504 90° East 502 578 45,000  Level FlightAware Transoceanic
08:54AM 56.1012 -25.0000 90° East 502 578 45,000  Level FlightAware Transoceanic
08:55AM 56.1009 -24.7496 90° East 502 578 45,000  Level FlightAware Transoceanic
08:56AM 56.1002 -24.4991 90° East 502 578 45,000  Level FlightAware Transoceanic
08:57AM 56.0989 -24.2487 91° East 502 578 45,000  Level FlightAware Transoceanic
08:58AM 56.0971 -23.9983 91° East 502 578 45,000  Level FlightAware Transoceanic
08:59AM 56.0949 -23.7479 91° East 502 578 45,000  Level FlightAware Transoceanic
09:00AM 56.0921 -23.4976 91° East 502 578 45,000  Level FlightAware Transoceanic
09:01AM 56.0888 -23.2473 91° East 502 578 45,000  Level FlightAware Transoceanic
09:02AM 56.0850 -22.9971 92° East 502 578 45,000  Level FlightAware Transoceanic
09:03AM 56.0807 -22.7469 92° East 502 578 45,000  Level FlightAware Transoceanic
09:04AM 56.0759 -22.4967 92° East 502 578 45,000  Level FlightAware Transoceanic
09:05AM 56.0705 -22.2466 92° East 502 578 45,000  Level FlightAware Transoceanic
09:06AM 56.0647 -21.9966 92° East 502 578 45,000  Level FlightAware Transoceanic
09:07AM 56.0584 -21.7467 93° East 502 578 45,000  Level FlightAware Transoceanic
09:08AM 56.0516 -21.4969 93° East 502 578 45,000  Level FlightAware Transoceanic
09:09AM 56.0442 -21.2471 93° East 502 578 45,000  Level FlightAware Transoceanic
09:10AM 56.0364 -20.9975 93° East 502 578 45,000  Level FlightAware Transoceanic
09:11AM 56.0280 -20.7479 94° East 502 578 45,000  Level FlightAware Transoceanic
09:12AM 56.0192 -20.4985 94° East 502 578 45,000  Level FlightAware Transoceanic
09:13AM 56.0098 -20.2492 94° East 502 578 45,000 -360 Level FlightAware Transoceanic
09:14AM 56.0002 -20.0041 94° East  Level FlightAware Approximate
09:15AM 55.9903 -19.7590 94° East  Level FlightAware Approximate
09:16AM 55.9904 -19.7631 94° East  Level FlightAware Approximate
09:17AM 55.9800 -19.5182 94° East  Level FlightAware Approximate
09:18AM 55.9691 -19.2734 94° East  Level FlightAware Approximate
09:19AM 55.9577 -19.0288 95° East  Level FlightAware Approximate
09:20AM 55.9459 -18.7843 95° East  Level FlightAware Approximate
09:21AM 55.9335 -18.5400 95° East  Level FlightAware Approximate
09:22AM 55.9207 -18.2958 95° East  Level FlightAware Approximate
09:23AM 55.9074 -18.0518 95° East  Level FlightAware Approximate
09:24AM 55.8936 -17.8080 96° East  Level FlightAware Approximate
09:25AM 55.8793 -17.5643 96° East  Level FlightAware Approximate
09:26AM 55.8646 -17.3208 96° East  Level FlightAware Approximate
09:27AM 55.8493 -17.0775 96° East  Level FlightAware Approximate
09:28AM 55.8336 -16.8344 96° East  Level FlightAware Approximate
09:29AM 55.8174 -16.5915 97° East  Level FlightAware Approximate
09:30AM 55.8008 -16.3488 97° East  Level FlightAware Approximate
09:31AM 55.7836 -16.1064 97° East  Level FlightAware Approximate
09:32AM 55.7660 -15.8641 97° East  Level FlightAware Approximate
09:33AM 55.7479 -15.6221 98° East  Level FlightAware Approximate
09:34AM 55.7292 -15.3803 98° East  Level FlightAware Approximate
09:35AM 55.7100 -15.1387 98° East  Level FlightAware Approximate
09:36AM 55.6904 -14.8974 98° East  Level FlightAware Approximate
09:37AM 55.6702 -14.6563 98° East  Level FlightAware Approximate
09:38AM 55.6497 -14.4155 99° East  Level FlightAware Approximate
09:39AM 55.6286 -14.1749 99° East  Level FlightAware Approximate
09:40AM 55.6071 -13.9347 99° East  Level FlightAware Approximate
09:41AM 55.5851 -13.6946 99° East  Level FlightAware Approximate
09:42AM 55.5626 -13.4549 99° East  Level FlightAware Approximate
09:43AM 55.5397 -13.2154 100° East  Level FlightAware Approximate
09:44AM 55.5163 -12.9762 100° East  Level FlightAware Approximate
09:45AM 55.4924 -12.7373 100° East  Level FlightAware Approximate
09:46AM 55.4681 -12.4986 100° East  Level FlightAware Approximate
09:47AM 55.4433 -12.2603 100° East  Level FlightAware Approximate
09:48AM 55.4180 -12.0223 100° East  Level FlightAware Approximate
09:49AM 55.3923 -11.7846 101° East  Level FlightAware Approximate
09:50AM 55.3661 -11.5472 101° East  Level FlightAware Approximate
09:51AM 55.3395 -11.3101 101° East  Level FlightAware Approximate
09:52AM 55.3124 -11.0733 101° East  Level FlightAware Approximate
09:53AM 55.2848 -10.8369 101° East  Level FlightAware Approximate
09:54AM 55.2568 -10.6007 102° East  Level FlightAware Approximate
09:55AM 55.2284 -10.3650 102° East  Level FlightAware Approximate
09:56AM 55.1995 -10.1295 102° East  Level FlightAware Approximate
09:56AM 54.9585 -8.9777 102° East 517 595 29,700  Level FlightAware UK
09:57AM 54.9505 -8.8489 96° East 521 600 28,500 -2,520 Descending FlightAware UK
09:57AM 54.9425 -8.7198 96° East 517 595 27,200 -2,700 Descending FlightAware UK
09:58AM 54.9350 -8.5956 96° East 486 559 25,800 -2,940 Descending FlightAware UK
09:58AM 54.9275 -8.4785 96° East 464 534 24,300 -3,120 Descending FlightAware UK
09:59AM 54.9203 -8.3672 96° East 438 504 22,700 -3,120 Descending FlightAware UK
09:59AM 54.9135 -8.2650 97° East 402 463 21,200 -3,000 Descending FlightAware UK
10:00AM 54.9075 -8.1707 96° East 370 426 19,700 -3,000 Descending FlightAware UK
10:00AM 54.9017 -8.0827 96° East 348 400 18,200 -3,000 Descending FlightAware UK
10:01AM 54.8957 -8.0003 97° East 324 373 16,700 -3,000 Descending FlightAware UK
10:01AM 54.8906 -7.9234 97° East 302 348 15,200 -3,000 Descending FlightAware UK
10:02AM 54.8856 -7.8496 97° East 292 336 13,700 -3,120 Descending FlightAware UK
10:02AM 54.8804 -7.7771 97° East 286 329 12,100 -3,240 Descending FlightAware UK
10:03AM 54.8756 -7.7060 97° East 278 320 10,500 -3,240 Descending FlightAware UK
10:03AM 54.8706 -7.6205 96° East 276 318 8,600 -2,880 Descending FlightAware UK
10:04AM 54.8639 -7.5375 98° East 268 308 7,100 -1,200 Descending FlightAware UK
10:05AM 54.8553 -7.4338 98° East 252 290 7,000 -180 Descending FlightAware UK
10:05AM 54.8504 -7.3579 96° East 244 281 6,900 -120 Descending FlightAware UK
10:06AM 54.8535 -7.2983 85° East 232 267 6,900 -420 Level FlightAware UK
10:07AM 54.8783 -7.2324 57° Northeast 206 237 6,400 -960 Descending FlightAware UK
10:07AM 54.9082 -7.1983 33° Northeast 214 246 5,700 -1,260 Descending FlightAware UK
10:08AM 54.9518 -7.1810 13° North 230 265 4,800 -1,320 Descending FlightAware UK
10:09AM 54.9908 -7.1638 14° North 224 258 4,000 -1,380 Descending FlightAware UK
10:09AM 55.0280 -7.1500 12° North 218 251 3,200 -720 Descending FlightAware UK
10:10AM 55.0644 -7.1367 12° North 212 244 3,200  Level FlightAware UK
10:10AM 55.0938 -7.1556 340° North 198 228 3,200 -960 Level FlightAware UK
10:11AM 55.0891 -7.1967 259° West 186 214 2,200 -1,320 Descending FlightAware UK
10:11AM 55.0765 -7.2315 238° Southwest 1 1 1,800 -600 Descending FlightAware UK
10:12AM 55.0625 -7.2638 233° Southwest 1 1 1,500 -660 Descending FlightAware UK
10:13AM 55.0391 -7.2675 185° South 1 1 1,000 -720 Descending FlightAware UK
10:15AM 55.0428 -7.1611 87° East  Level Estimated
10:22AM 55.0428 -7.1611 196° South  Level Estimated
10:23AM 55.0428 -7.1611 196° South  Level Estimated
10:24AM 55.0428 -7.1611 196° South  Level Estimated
10:25AM 55.0428 -7.1611 196° South  Level Estimated
10:26AM 55.0428 -7.1611 196° South  Level Estimated
10:27AM 55.0428 -7.1611 196° South  Level Estimated
10:28AM 55.0428 -7.1611 196° South  Level Estimated
10:29AM 55.0428 -7.1611 196° South  Level Estimated
10:30AM 55.0428 -7.1611 196° South  Level Estimated
10:31AM 55.0428 -7.1611 196° South  Level Estimated
10:32AM 55.0428 -7.1611 196° South  Level Estimated
10:33AM 55.0428 -7.1611 196° South  Level Estimated
10:34AM 55.0428 -7.1611 196° South  Level Estimated
10:35AM 55.0428 -7.1611 196° South  Level Estimated
10:36AM 55.0428 -7.1611 196° South  Level Estimated
10:37AM 55.0428 -7.1611 196° South  Level Estimated